Time;durP1;ratioP1;P1;durP2;ratioP2;P2;SDS_P1;SDS_P2;PMS_P1;PMS_P2;Temp;Humidity;BMP_temperature;BMP_pressure;BME280_temperature;BME280_humidity;BME280_pressure;Samples;Min_cycle;Max_cycle;Signal;HPM_P1;HPM_P2
2022/07/31 00:01:29;;;;;;;;;;;;;;;;;;5020547;28;19918;-23
2022/07/31 00:04:06;;;;;;;;;;;;;;;;;;5021633;28;19925;-24
2022/07/31 00:06:32;;;;;;;;;;;;;;;;;;5022422;28;19914;-24
2022/07/31 00:09:01;;;;;;;;;;;;;;;;;;5022247;28;20252;-23
2022/07/31 00:11:28;;;;;;;;;;;;;;;;;;5022058;28;19920;-23
2022/07/31 00:13:55;;;;;;;;;;;;;;;;;;5019176;28;19952;-23
2022/07/31 00:16:27;;;;;;;;;;;;;;;;;;5021550;28;19972;-23
2022/07/31 00:18:54;;;;;;;;;;;;;;;;;;5020772;28;19918;-29
2022/07/31 00:21:21;;;;;;;;;;;;;;;;;;5021128;28;20276;-29
2022/07/31 00:23:49;;;;;;;;;;;;;;;;;;5021597;28;19914;-28
2022/07/31 00:26:16;;;;;;;;;;;;;;;;;;5020095;28;19964;-29
2022/07/31 00:28:46;;;;;;;;;;;;;;;;;;5020796;28;19917;-28
2022/07/31 00:31:14;;;;;;;;;;;;;;;;;;5020372;28;20309;-27
2022/07/31 00:33:41;;;;;;;;;;;;;;;;;;5021300;28;19924;-29
2022/07/31 00:36:08;;;;;;;;;;;;;;;;;;5021141;28;20298;-30
2022/07/31 00:38:38;;;;;;;;;;;;;;;;;;5020881;28;19928;-27
2022/07/31 00:41:07;;;;;;;;;;;;;;;;;;5020387;28;19914;-27
2022/07/31 00:43:35;;;;;;;;;;;;;;;;;;5021910;28;19919;-29
2022/07/31 00:46:02;;;;;;;;;;;;;;;;;;5020764;28;20000;-28
2022/07/31 00:48:29;;;;;;;;;;;;;;;;;;5020489;28;19941;-29
2022/07/31 00:50:58;;;;;;;;;;;;;;;;;;5020668;28;19988;-25
2022/07/31 00:53:25;;;;;;;;;;;;;;;;;;5021188;28;19918;-26
2022/07/31 00:55:52;;;;;;;;;;;;;;;;;;5021400;28;20356;-26
2022/07/31 00:58:20;;;;;;;;;;;;;;;;;;5021542;28;19917;-24
2022/07/31 01:00:48;;;;;;;;;;;;;;;;;;5020318;28;19972;-26
2022/07/31 01:03:15;;;;;;;;;;;;;;;;;;5021451;28;19914;-30
2022/07/31 01:05:42;;;;;;;;;;;;;;;;;;5019737;28;20272;-24
2022/07/31 01:08:09;;;;;;;;;;;;;;;;;;5021466;28;19913;-25
2022/07/31 01:10:36;;;;;;;;;;;;;;;;;;5019910;28;19967;-24
2022/07/31 01:13:03;;;;;;;;;;;;;;;;;;5021099;28;20363;-31
2022/07/31 01:15:31;;;;;;;;;;;;;;;;;;5021520;28;20304;-24
2022/07/31 01:18:00;;;;;;;;;;;;;;;;;;5020872;28;19914;-26
2022/07/31 01:20:33;;;;;;;;;;;;;;;;;;5020260;28;19913;-24
2022/07/31 01:23:01;;;;;;;;;;;;;;;;;;5021357;28;20289;-27
2022/07/31 01:25:28;;;;;;;;;;;;;;;;;;5022015;28;19917;-30
2022/07/31 01:27:57;;;;;;;;;;;;;;;;;;5021625;28;19913;-26
2022/07/31 01:30:24;;;;;;;;;;;;;;;;;;5020520;28;19924;-23
2022/07/31 01:32:53;;;;;;;;;;;;;;;;;;5019908;28;19914;-27
2022/07/31 01:35:21;;;;;;;;;;;;;;;;;;5020787;28;19917;-24
2022/07/31 01:37:48;;;;;;;;;;;;;;;;;;5019285;28;19909;-26
2022/07/31 01:40:19;;;;;;;;;;;;;;;;;;5019476;28;19918;-29
2022/07/31 01:42:47;;;;;;;;;;;;;;;;;;5020008;28;20000;-24
2022/07/31 01:45:14;;;;;;;;;;;;;;;;;;5018744;28;19960;-28
2022/07/31 01:47:41;;;;;;;;;;;;;;;;;;4999394;28;19921;-26
2022/07/31 01:50:10;;;;;;;;;;;;;;;;;;4982334;28;19909;-26
2022/07/31 01:52:38;;;;;;;;;;;;;;;;;;5000708;28;19925;-26
2022/07/31 01:55:06;;;;;;;;;;;;;;;;;;5000444;28;19914;-29
2022/07/31 01:57:33;;;;;;;;;;;;;;;;;;4983755;28;19910;-26
2022/07/31 02:00:03;;;;;;;;;;;;;;;;;;5002116;28;20022;-26
2022/07/31 02:05:20;;;;;;;;;;;;;;;;;;5001048;28;19920;-24
2022/07/31 02:07:47;;;;;;;;;;;;;;;;;;5000330;28;20004;-25
2022/07/31 02:10:14;;;;;;;;;;;;;;;;;;5001115;28;19945;-25
2022/07/31 02:12:42;;;;;;;;;;;;;;;;;;5000137;28;19910;-30
2022/07/31 02:15:09;;;;;;;;;;;;;;;;;;4983085;28;20226;-24
2022/07/31 02:17:35;;;;;;;;;;;;;;;;;;5001102;28;19972;-27
2022/07/31 02:20:03;;;;;;;;;;;;;;;;;;5000877;28;19953;-25
2022/07/31 02:22:30;;;;;;;;;;;;;;;;;;5001130;28;20005;-27
2022/07/31 02:24:57;;;;;;;;;;;;;;;;;;4982697;28;19909;-28
2022/07/31 02:27:24;;;;;;;;;;;;;;;;;;5000444;28;19914;-25
2022/07/31 02:29:52;;;;;;;;;;;;;;;;;;5000409;28;19910;-29
2022/07/31 02:32:19;;;;;;;;;;;;;;;;;;4983953;28;19921;-26
2022/07/31 02:34:49;;;;;;;;;;;;;;;;;;4983713;28;19976;-25
2022/07/31 02:37:16;;;;;;;;;;;;;;;;;;4983484;28;19914;-24
2022/07/31 02:39:43;;;;;;;;;;;;;;;;;;5001237;28;19918;-25
2022/07/31 02:42:10;;;;;;;;;;;;;;;;;;4984257;28;19910;-25
2022/07/31 02:44:37;;;;;;;;;;;;;;;;;;4984261;28;19914;-26
2022/07/31 02:47:05;;;;;;;;;;;;;;;;;;4998286;28;19922;-27
2022/07/31 02:49:32;;;;;;;;;;;;;;;;;;5019617;28;19914;-26
2022/07/31 02:52:00;;;;;;;;;;;;;;;;;;5019397;28;20001;-26
2022/07/31 02:54:34;;;;;;;;;;;;;;;;;;5020976;28;19913;-26
2022/07/31 02:57:03;;;;;;;;;;;;;;;;;;5020870;28;20321;-29
2022/07/31 02:59:31;;;;;;;;;;;;;;;;;;5023461;28;19921;-27
2022/07/31 03:01:58;;;;;;;;;;;;;;;;;;5024533;28;19917;-29
2022/07/31 03:04:25;;;;;;;;;;;;;;;;;;5024115;28;19941;-24
2022/07/31 03:06:53;;;;;;;;;;;;;;;;;;5024766;28;20024;-29
2022/07/31 03:09:26;;;;;;;;;;;;;;;;;;5024409;28;19971;-24
2022/07/31 03:11:56;;;;;;;;;;;;;;;;;;5024435;28;19913;-23
2022/07/31 03:14:23;;;;;;;;;;;;;;;;;;5024339;28;19909;-29
2022/07/31 03:16:50;;;;;;;;;;;;;;;;;;5025696;28;20316;-24
2022/07/31 03:19:21;;;;;;;;;;;;;;;;;;5024283;28;19913;-23
2022/07/31 03:21:48;;;;;;;;;;;;;;;;;;5024061;28;19914;-30
2022/07/31 03:24:15;;;;;;;;;;;;;;;;;;5023885;28;19920;-25
2022/07/31 03:26:42;;;;;;;;;;;;;;;;;;5023994;28;19913;-30
2022/07/31 03:29:09;;;;;;;;;;;;;;;;;;5024014;28;19913;-24
2022/07/31 03:31:37;;;;;;;;;;;;;;;;;;5024508;28;19913;-29
2022/07/31 03:34:04;;;;;;;;;;;;;;;;;;5023466;28;19942;-29
2022/07/31 03:36:37;;;;;;;;;;;;;;;;;;5023155;28;20324;-28
2022/07/31 03:39:05;;;;;;;;;;;;;;;;;;5023950;28;20264;-27
2022/07/31 03:41:33;;;;;;;;;;;;;;;;;;5023539;28;20330;-26
2022/07/31 03:44:00;;;;;;;;;;;;;;;;;;5023200;28;19917;-29
2022/07/31 03:46:28;;;;;;;;;;;;;;;;;;5024080;28;20346;-30
2022/07/31 03:48:56;;;;;;;;;;;;;;;;;;5023935;28;19951;-23
2022/07/31 03:51:25;;;;;;;;;;;;;;;;;;5021908;28;19977;-25
2022/07/31 03:53:54;;;;;;;;;;;;;;;;;;5022869;28;20003;-29
2022/07/31 03:56:21;;;;;;;;;;;;;;;;;;5023545;28;19913;-23
2022/07/31 03:58:49;;;;;;;;;;;;;;;;;;5023904;28;19979;-23
2022/07/31 04:01:16;;;;;;;;;;;;;;;;;;5023257;28;19920;-27
2022/07/31 04:03:43;;;;;;;;;;;;;;;;;;5022702;28;19913;-23
2022/07/31 04:06:11;;;;;;;;;;;;;;;;;;5023531;28;19913;-27
2022/07/31 04:08:38;;;;;;;;;;;;;;;;;;5023520;28;19917;-24
2022/07/31 04:11:06;;;;;;;;;;;;;;;;;;5021375;28;19979;-25
2022/07/31 04:13:36;;;;;;;;;;;;;;;;;;5022863;28;19936;-25
2022/07/31 04:16:04;;;;;;;;;;;;;;;;;;5022413;28;20008;-27
2022/07/31 04:18:30;;;;;;;;;;;;;;;;;;5022820;28;19929;-31
2022/07/31 04:20:57;;;;;;;;;;;;;;;;;;5022705;28;19952;-30
2022/07/31 04:23:24;;;;;;;;;;;;;;;;;;5021478;28;19917;-27
2022/07/31 04:25:52;;;;;;;;;;;;;;;;;;5022458;28;19909;-26
2022/07/31 04:28:20;;;;;;;;;;;;;;;;;;5023308;28;19917;-25
2022/07/31 04:30:48;;;;;;;;;;;;;;;;;;5022095;28;19914;-27
2022/07/31 04:33:17;;;;;;;;;;;;;;;;;;5020919;28;19917;-29
2022/07/31 04:35:44;;;;;;;;;;;;;;;;;;5023640;28;20004;-25
2022/07/31 04:38:15;;;;;;;;;;;;;;;;;;5021963;28;19913;-28
2022/07/31 04:40:42;;;;;;;;;;;;;;;;;;5022905;28;19964;-29
2022/07/31 04:43:11;;;;;;;;;;;;;;;;;;5021433;28;19920;-30
2022/07/31 04:45:38;;;;;;;;;;;;;;;;;;5022561;28;19921;-24
2022/07/31 04:48:06;;;;;;;;;;;;;;;;;;5022216;28;19944;-30
2022/07/31 04:50:33;;;;;;;;;;;;;;;;;;5021542;28;20003;-24
2022/07/31 04:53:00;;;;;;;;;;;;;;;;;;5021530;28;19914;-26
2022/07/31 04:55:31;;;;;;;;;;;;;;;;;;5021749;28;19914;-25
2022/07/31 04:57:57;;;;;;;;;;;;;;;;;;5021576;28;19924;-26
2022/07/31 05:00:25;;;;;;;;;;;;;;;;;;5020693;28;19928;-28
2022/07/31 05:02:53;;;;;;;;;;;;;;;;;;5021112;28;20302;-31
2022/07/31 05:05:20;;;;;;;;;;;;;;;;;;5022007;28;19924;-30
2022/07/31 05:07:48;;;;;;;;;;;;;;;;;;5022089;28;19972;-24
2022/07/31 05:13:01;;;;;;;;;;;;;;;;;;4990734;28;19920;-25
2022/07/31 05:15:31;;;;;;;;;;;;;;;;;;5022013;28;19929;-25
2022/07/31 05:17:59;;;;;;;;;;;;;;;;;;5022246;28;19921;-29
2022/07/31 05:20:27;;;;;;;;;;;;;;;;;;5021714;28;19974;-26
2022/07/31 05:22:54;;;;;;;;;;;;;;;;;;5020200;28;19913;-26
2022/07/31 05:25:22;;;;;;;;;;;;;;;;;;5021050;28;19910;-23
2022/07/31 05:27:51;;;;;;;;;;;;;;;;;;5021809;28;19952;-26
2022/07/31 05:30:20;;;;;;;;;;;;;;;;;;5021291;28;19913;-25
2022/07/31 05:32:48;;;;;;;;;;;;;;;;;;5021554;28;19913;-27
2022/07/31 05:35:15;;;;;;;;;;;;;;;;;;5021301;28;20343;-29
2022/07/31 05:37:43;;;;;;;;;;;;;;;;;;5020624;28;19914;-27
2022/07/31 05:40:11;;;;;;;;;;;;;;;;;;5021041;28;19928;-27
2022/07/31 05:42:38;;;;;;;;;;;;;;;;;;5019676;28;19922;-32
2022/07/31 05:45:06;;;;;;;;;;;;;;;;;;5020211;28;19941;-32
2022/07/31 05:47:33;;;;;;;;;;;;;;;;;;5021453;28;19921;-26
2022/07/31 05:50:03;;;;;;;;;;;;;;;;;;5021200;28;19932;-25
2022/07/31 05:52:31;;;;;;;;;;;;;;;;;;5020539;28;19929;-27
2022/07/31 05:54:59;;;;;;;;;;;;;;;;;;5020165;28;19960;-31
2022/07/31 05:57:25;;;;;;;;;;;;;;;;;;5020754;28;19913;-31
2022/07/31 05:59:58;;;;;;;;;;;;;;;;;;5020210;28;19933;-28
2022/07/31 06:02:40;;;;;;;;;;;;;;;;;;5020972;28;19913;-30
2022/07/31 06:05:11;;;;;;;;;;;;;;;;;;5021266;28;20362;-28
2022/07/31 06:07:40;;;;;;;;;;;;;;;;;;5020188;28;20361;-26
2022/07/31 06:10:08;;;;;;;;;;;;;;;;;;5020011;28;20094;-29
2022/07/31 06:12:40;;;;;;;;;;;;;;;;;;5018481;28;19969;-25
2022/07/31 06:15:10;;;;;;;;;;;;;;;;;;5019870;28;20021;-26
2022/07/31 06:17:38;;;;;;;;;;;;;;;;;;5019936;28;19917;-29
2022/07/31 06:20:05;;;;;;;;;;;;;;;;;;5019626;28;19948;-26
2022/07/31 06:22:34;;;;;;;;;;;;;;;;;;5018887;28;19924;-26
2022/07/31 06:25:04;;;;;;;;;;;;;;;;;;5019229;28;20237;-29
2022/07/31 06:27:34;;;;;;;;;;;;;;;;;;5020344;28;19914;-25
2022/07/31 06:30:01;;;;;;;;;;;;;;;;;;5020406;28;19932;-31
2022/07/31 06:32:30;;;;;;;;;;;;;;;;;;5020984;28;19926;-27
2022/07/31 06:34:59;;;;;;;;;;;;;;;;;;5023708;28;20352;-30
2022/07/31 06:37:27;;;;;;;;;;;;;;;;;;5024620;28;19917;-26
2022/07/31 06:39:56;;;;;;;;;;;;;;;;;;5024767;28;19917;-30
2022/07/31 06:42:24;;;;;;;;;;;;;;;;;;5023584;28;19913;-23
2022/07/31 06:44:52;;;;;;;;;;;;;;;;;;5022290;28;20352;-29
2022/07/31 06:47:20;;;;;;;;;;;;;;;;;;5023923;28;20283;-25
2022/07/31 06:49:49;;;;;;;;;;;;;;;;;;5023855;28;19917;-26
2022/07/31 06:52:16;;;;;;;;;;;;;;;;;;5023904;28;19921;-26
2022/07/31 06:54:44;;;;;;;;;;;;;;;;;;5023707;28;19979;-27
2022/07/31 06:57:11;;;;;;;;;;;;;;;;;;5025212;28;19914;-25
2022/07/31 06:59:39;;;;;;;;;;;;;;;;;;5024025;28;19921;-26
2022/07/31 07:02:08;;;;;;;;;;;;;;;;;;5023523;28;19924;-29
2022/07/31 07:04:36;;;;;;;;;;;;;;;;;;5024033;28;19909;-30
2022/07/31 07:07:03;;;;;;;;;;;;;;;;;;5023777;28;19940;-26
2022/07/31 07:09:30;;;;;;;;;;;;;;;;;;5024212;28;19960;-30
2022/07/31 07:11:57;;;;;;;;;;;;;;;;;;5022818;28;19992;-25
2022/07/31 07:14:26;;;;;;;;;;;;;;;;;;5023614;28;19924;-24
2022/07/31 07:16:54;;;;;;;;;;;;;;;;;;5023757;28;19909;-23
2022/07/31 07:19:21;;;;;;;;;;;;;;;;;;5023078;28;19956;-28
2022/07/31 07:21:48;;;;;;;;;;;;;;;;;;5022750;28;19914;-24
2022/07/31 07:24:15;;;;;;;;;;;;;;;;;;5021798;28;19913;-28
2022/07/31 07:26:43;;;;;;;;;;;;;;;;;;5024033;28;20005;-26
2022/07/31 07:29:11;;;;;;;;;;;;;;;;;;5023076;28;19914;-24
2022/07/31 07:31:39;;;;;;;;;;;;;;;;;;5023610;28;19917;-25
2022/07/31 07:34:12;;;;;;;;;;;;;;;;;;5022847;28;19910;-28
2022/07/31 07:36:40;;;;;;;;;;;;;;;;;;5022520;28;19969;-30
2022/07/31 07:39:08;;;;;;;;;;;;;;;;;;5023332;28;19929;-25
2022/07/31 07:41:37;;;;;;;;;;;;;;;;;;5022988;28;19910;-30
2022/07/31 07:44:04;;;;;;;;;;;;;;;;;;5023190;28;19920;-29
2022/07/31 07:46:33;;;;;;;;;;;;;;;;;;5021539;28;19983;-29
2022/07/31 07:49:00;;;;;;;;;;;;;;;;;;5023554;28;19920;-25
2022/07/31 07:51:27;;;;;;;;;;;;;;;;;;5022531;28;19941;-28
2022/07/31 07:53:54;;;;;;;;;;;;;;;;;;5023522;28;19920;-31
2022/07/31 07:56:24;;;;;;;;;;;;;;;;;;5023865;28;20292;-28
2022/07/31 07:58:59;;;;;;;;;;;;;;;;;;5022183;28;19979;-31
2022/07/31 08:01:33;;;;;;;;;;;;;;;;;;5023444;28;19916;-22
2022/07/31 08:04:01;;;;;;;;;;;;;;;;;;5023339;28;19925;-28
2022/07/31 08:06:28;;;;;;;;;;;;;;;;;;5023110;28;19921;-26
2022/07/31 08:08:56;;;;;;;;;;;;;;;;;;5021800;28;19909;-27
2022/07/31 08:11:25;;;;;;;;;;;;;;;;;;5022403;28;19909;-26
2022/07/31 08:13:58;;;;;;;;;;;;;;;;;;5021624;28;20214;-28
2022/07/31 08:16:25;;;;;;;;;;;;;;;;;;5022355;28;20390;-23
2022/07/31 08:18:53;;;;;;;;;;;;;;;;;;5023002;28;19975;-24
2022/07/31 08:21:22;;;;;;;;;;;;;;;;;;5023099;28;19917;-28
2022/07/31 08:23:51;;;;;;;;;;;;;;;;;;5022871;28;19917;-24
2022/07/31 08:26:18;;;;;;;;;;;;;;;;;;5022808;28;19913;-28
2022/07/31 08:28:45;;;;;;;;;;;;;;;;;;5022107;28;20013;-33
2022/07/31 08:31:14;;;;;;;;;;;;;;;;;;5022689;28;19910;-33
2022/07/31 08:33:41;;;;;;;;;;;;;;;;;;5022055;28;19944;-27
2022/07/31 08:36:09;;;;;;;;;;;;;;;;;;5022009;28;19927;-25
2022/07/31 08:38:38;;;;;;;;;;;;;;;;;;5020873;28;19918;-28
2022/07/31 08:41:07;;;;;;;;;;;;;;;;;;5022126;28;19913;-27
2022/07/31 08:43:41;;;;;;;;;;;;;;;;;;5021765;28;19917;-25
2022/07/31 08:46:09;;;;;;;;;;;;;;;;;;5022483;28;19925;-25
2022/07/31 08:48:37;;;;;;;;;;;;;;;;;;5022636;28;19921;-25
2022/07/31 08:51:06;;;;;;;;;;;;;;;;;;5021153;28;19960;-27
2022/07/31 08:53:33;;;;;;;;;;;;;;;;;;5021353;28;19909;-25
2022/07/31 08:56:02;;;;;;;;;;;;;;;;;;5022988;28;19913;-24
2022/07/31 08:58:31;;;;;;;;;;;;;;;;;;5021365;28;19923;-27
2022/07/31 09:01:00;;;;;;;;;;;;;;;;;;5022281;28;20252;-25
2022/07/31 09:03:29;;;;;;;;;;;;;;;;;;5021882;28;19913;-27
2022/07/31 09:05:57;;;;;;;;;;;;;;;;;;5022765;28;19910;-27
2022/07/31 09:08:26;;;;;;;;;;;;;;;;;;5021571;28;19914;-26
2022/07/31 09:10:53;;;;;;;;;;;;;;;;;;5021949;28;19991;-27
2022/07/31 09:13:21;;;;;;;;;;;;;;;;;;5022036;28;19913;-27
2022/07/31 09:15:49;;;;;;;;;;;;;;;;;;5021849;28;19917;-27
2022/07/31 09:18:18;;;;;;;;;;;;;;;;;;5020284;28;20288;-25
2022/07/31 09:20:45;;;;;;;;;;;;;;;;;;5019622;28;19909;-29
2022/07/31 09:23:13;;;;;;;;;;;;;;;;;;5021068;28;19924;-28
2022/07/31 09:25:40;;;;;;;;;;;;;;;;;;5020417;28;19920;-23
2022/07/31 09:28:07;;;;;;;;;;;;;;;;;;5021841;28;19988;-28
2022/07/31 09:30:35;;;;;;;;;;;;;;;;;;5021622;28;20205;-28
2022/07/31 09:33:02;;;;;;;;;;;;;;;;;;5019899;28;19944;-26
2022/07/31 09:35:38;;;;;;;;;;;;;;;;;;5022625;28;19916;-28
2022/07/31 09:38:06;;;;;;;;;;;;;;;;;;5021695;28;19914;-25
2022/07/31 09:40:33;;;;;;;;;;;;;;;;;;5020349;28;19914;-30
2022/07/31 09:43:01;;;;;;;;;;;;;;;;;;5020889;28;20064;-30
2022/07/31 09:45:28;;;;;;;;;;;;;;;;;;5020727;28;19917;-30
2022/07/31 09:47:55;;;;;;;;;;;;;;;;;;5020600;28;19918;-30
2022/07/31 09:50:23;;;;;;;;;;;;;;;;;;5020453;28;19910;-26
2022/07/31 09:52:51;;;;;;;;;;;;;;;;;;5022651;28;19918;-29
2022/07/31 09:55:19;;;;;;;;;;;;;;;;;;5020946;28;20360;-30
2022/07/31 09:57:46;;;;;;;;;;;;;;;;;;5020543;28;19913;-27
2022/07/31 10:00:15;;;;;;;;;;;;;;;;;;5021853;28;19920;-24
2022/07/31 10:02:44;;;;;;;;;;;;;;;;;;5020845;28;19914;-28
2022/07/31 10:05:11;;;;;;;;;;;;;;;;;;5019894;28;19921;-24
2022/07/31 10:07:39;;;;;;;;;;;;;;;;;;5021198;28;19914;-30
2022/07/31 10:10:08;;;;;;;;;;;;;;;;;;5027108;28;20259;-28
2022/07/31 10:12:37;;;;;;;;;;;;;;;;;;5027443;28;19914;-24
2022/07/31 10:15:04;;;;;;;;;;;;;;;;;;5028093;28;19918;-30
2022/07/31 10:17:32;;;;;;;;;;;;;;;;;;5028079;28;19913;-27
2022/07/31 10:19:59;;;;;;;;;;;;;;;;;;5026653;28;19913;-26
2022/07/31 10:22:26;;;;;;;;;;;;;;;;;;5027701;28;19953;-23
2022/07/31 10:24:55;;;;;;;;;;;;;;;;;;5027036;28;19909;-28
2022/07/31 10:27:22;;;;;;;;;;;;;;;;;;5027569;28;19975;-24
2022/07/31 10:29:53;;;;;;;;;;;;;;;;;;5028289;28;19909;-25
2022/07/31 10:32:22;;;;;;;;;;;;;;;;;;5027732;28;19917;-26
2022/07/31 10:34:54;;;;;;;;;;;;;;;;;;5027862;28;19968;-25
2022/07/31 10:37:24;;;;;;;;;;;;;;;;;;5028241;28;19920;-27
2022/07/31 10:39:53;;;;;;;;;;;;;;;;;;5027697;28;19925;-27
2022/07/31 10:42:20;;;;;;;;;;;;;;;;;;5027438;28;19913;-24
2022/07/31 10:44:46;;;;;;;;;;;;;;;;;;5028005;28;19909;-29
2022/07/31 10:47:16;;;;;;;;;;;;;;;;;;5027600;28;19957;-30
2022/07/31 10:49:43;;;;;;;;;;;;;;;;;;5026639;28;19914;-28
2022/07/31 10:52:11;;;;;;;;;;;;;;;;;;5027267;28;20329;-26
2022/07/31 10:54:39;;;;;;;;;;;;;;;;;;5027376;28;19928;-25
2022/07/31 10:57:10;;;;;;;;;;;;;;;;;;5027616;28;19917;-27
2022/07/31 10:59:38;;;;;;;;;;;;;;;;;;5026897;28;19981;-29
2022/07/31 11:02:06;;;;;;;;;;;;;;;;;;5025949;28;19940;-29
2022/07/31 11:04:34;;;;;;;;;;;;;;;;;;5026204;28;19910;-25
2022/07/31 11:07:02;;;;;;;;;;;;;;;;;;5028308;28;19921;-27
2022/07/31 11:09:29;;;;;;;;;;;;;;;;;;5026309;28;19945;-30
2022/07/31 11:11:55;;;;;;;;;;;;;;;;;;5026795;28;20230;-30
2022/07/31 11:14:23;;;;;;;;;;;;;;;;;;5025954;28;20348;-33
2022/07/31 11:16:50;;;;;;;;;;;;;;;;;;5028065;28;20210;-32
2022/07/31 11:19:18;;;;;;;;;;;;;;;;;;5026126;28;19913;-26
2022/07/31 11:21:45;;;;;;;;;;;;;;;;;;5024392;28;19924;-30
2022/07/31 11:24:15;;;;;;;;;;;;;;;;;;5024529;28;19917;-26
2022/07/31 11:26:43;;;;;;;;;;;;;;;;;;5023813;28;19940;-26
2022/07/31 11:29:11;;;;;;;;;;;;;;;;;;5022985;28;19973;-29
2022/07/31 11:31:38;;;;;;;;;;;;;;;;;;5023740;28;20352;-27
2022/07/31 11:34:06;;;;;;;;;;;;;;;;;;5022260;28;19993;-27
2022/07/31 11:36:33;;;;;;;;;;;;;;;;;;5023195;28;19963;-27
2022/07/31 11:39:01;;;;;;;;;;;;;;;;;;5023072;28;20308;-29
2022/07/31 11:41:28;;;;;;;;;;;;;;;;;;5023617;28;19924;-26
2022/07/31 11:43:57;;;;;;;;;;;;;;;;;;5024093;28;19925;-25
2022/07/31 11:46:26;;;;;;;;;;;;;;;;;;5023765;28;19921;-27
2022/07/31 11:48:53;;;;;;;;;;;;;;;;;;5022600;28;19925;-26
2022/07/31 11:51:24;;;;;;;;;;;;;;;;;;5023245;28;20047;-28
2022/07/31 11:53:57;;;;;;;;;;;;;;;;;;5022588;28;19924;-25
2022/07/31 11:56:31;;;;;;;;;;;;;;;;;;5023894;28;20006;-27
2022/07/31 11:58:58;;;;;;;;;;;;;;;;;;5023702;28;19931;-26
2022/07/31 12:01:28;;;;;;;;;;;;;;;;;;5022830;28;19916;-26
2022/07/31 12:03:56;;;;;;;;;;;;;;;;;;5022556;28;20288;-32
2022/07/31 12:06:26;;;;;;;;;;;;;;;;;;5023220;28;19981;-26
2022/07/31 12:08:53;;;;;;;;;;;;;;;;;;5022206;28;19909;-27
2022/07/31 12:11:20;;;;;;;;;;;;;;;;;;5023159;28;19956;-29
2022/07/31 12:13:48;;;;;;;;;;;;;;;;;;5022990;28;20001;-27
2022/07/31 12:16:15;;;;;;;;;;;;;;;;;;5022158;28;19914;-29
2022/07/31 12:18:41;;;;;;;;;;;;;;;;;;5022883;28;20321;-32
2022/07/31 12:21:09;;;;;;;;;;;;;;;;;;5023616;28;20219;-31
2022/07/31 12:23:38;;;;;;;;;;;;;;;;;;5022397;28;19936;-32
2022/07/31 12:26:05;;;;;;;;;;;;;;;;;;5023611;28;19913;-25
2022/07/31 12:28:35;;;;;;;;;;;;;;;;;;5022468;28;19920;-27
2022/07/31 12:31:05;;;;;;;;;;;;;;;;;;5022879;28;20234;-24
2022/07/31 12:33:32;;;;;;;;;;;;;;;;;;5023383;28;20264;-25
2022/07/31 12:36:00;;;;;;;;;;;;;;;;;;5023048;28;19920;-31
2022/07/31 12:38:28;;;;;;;;;;;;;;;;;;5023748;28;19913;-27
2022/07/31 12:41:00;;;;;;;;;;;;;;;;;;5022071;28;19936;-32
2022/07/31 12:43:29;;;;;;;;;;;;;;;;;;5022666;28;19918;-28
2022/07/31 12:46:01;;;;;;;;;;;;;;;;;;5022492;28;19949;-23
2022/07/31 12:48:30;;;;;;;;;;;;;;;;;;5022117;28;19924;-23
2022/07/31 12:51:01;;;;;;;;;;;;;;;;;;5022740;28;20056;-26
2022/07/31 12:53:30;;;;;;;;;;;;;;;;;;5021972;28;19921;-28
2022/07/31 12:55:57;;;;;;;;;;;;;;;;;;5023599;28;19976;-26
2022/07/31 12:58:24;;;;;;;;;;;;;;;;;;5022337;28;19910;-29
2022/07/31 13:00:53;;;;;;;;;;;;;;;;;;5022228;28;19985;-29
2022/07/31 13:03:21;;;;;;;;;;;;;;;;;;5022498;28;19909;-29
2022/07/31 13:05:49;;;;;;;;;;;;;;;;;;5022378;28;19924;-27
2022/07/31 13:08:16;;;;;;;;;;;;;;;;;;5021365;28;19914;-26
2022/07/31 13:10:47;;;;;;;;;;;;;;;;;;5020816;28;19932;-26
2022/07/31 13:13:14;;;;;;;;;;;;;;;;;;5022408;28;20272;-29
2022/07/31 13:15:41;;;;;;;;;;;;;;;;;;5022464;28;19909;-30
2022/07/31 13:18:10;;;;;;;;;;;;;;;;;;5022034;28;19913;-27
2022/07/31 13:20:37;;;;;;;;;;;;;;;;;;5022419;28;20328;-26
2022/07/31 13:23:05;;;;;;;;;;;;;;;;;;5021565;28;19913;-27
2022/07/31 13:25:36;;;;;;;;;;;;;;;;;;5022104;28;20044;-26
2022/07/31 13:28:04;;;;;;;;;;;;;;;;;;5021873;28;19964;-28
2022/07/31 13:30:32;;;;;;;;;;;;;;;;;;5022380;28;19909;-27
2022/07/31 13:33:00;;;;;;;;;;;;;;;;;;5021453;28;19952;-25
2022/07/31 13:35:31;;;;;;;;;;;;;;;;;;5022691;28;20000;-24
2022/07/31 13:37:58;;;;;;;;;;;;;;;;;;5021576;28;19917;-27
2022/07/31 13:43:10;;;;;;;;;;;;;;;;;;5020321;28;19959;-26
2022/07/31 13:45:37;;;;;;;;;;;;;;;;;;5020614;28;19972;-26
2022/07/31 13:48:04;;;;;;;;;;;;;;;;;;5022298;28;19914;-28
2022/07/31 13:50:31;;;;;;;;;;;;;;;;;;5021826;28;19913;-26
2022/07/31 13:52:58;;;;;;;;;;;;;;;;;;5021544;28;20321;-25
2022/07/31 13:55:31;;;;;;;;;;;;;;;;;;5020312;28;19988;-25
2022/07/31 13:57:59;;;;;;;;;;;;;;;;;;5021733;28;19914;-27
2022/07/31 14:00:27;;;;;;;;;;;;;;;;;;5020052;28;19925;-30
2022/07/31 14:02:54;;;;;;;;;;;;;;;;;;5020671;28;19914;-27
2022/07/31 14:05:21;;;;;;;;;;;;;;;;;;5021614;28;20244;-26
2022/07/31 14:07:47;;;;;;;;;;;;;;;;;;5022123;28;20016;-27
2022/07/31 14:10:16;;;;;;;;;;;;;;;;;;5021711;28;19917;-25
2022/07/31 14:12:52;;;;;;;;;;;;;;;;;;5021367;28;19923;-24
2022/07/31 14:15:22;;;;;;;;;;;;;;;;;;5021754;28;20213;-28
2022/07/31 14:17:49;;;;;;;;;;;;;;;;;;5021822;28;19918;-26
2022/07/31 14:20:23;;;;;;;;;;;;;;;;;;5021244;28;19953;-24
2022/07/31 14:22:53;;;;;;;;;;;;;;;;;;5021370;28;20004;-27
2022/07/31 14:25:21;;;;;;;;;;;;;;;;;;5021190;28;19975;-30
2022/07/31 14:27:51;;;;;;;;;;;;;;;;;;5020159;28;19981;-28
2022/07/31 14:30:24;;;;;;;;;;;;;;;;;;5021704;28;20264;-26
2022/07/31 14:32:52;;;;;;;;;;;;;;;;;;5021218;28;19913;-29
2022/07/31 14:35:20;;;;;;;;;;;;;;;;;;5021694;28;19917;-27
2022/07/31 14:37:52;;;;;;;;;;;;;;;;;;5021882;28;19925;-25
2022/07/31 14:40:21;;;;;;;;;;;;;;;;;;5021054;28;19928;-27
2022/07/31 14:42:49;;;;;;;;;;;;;;;;;;5021051;28;20005;-28
2022/07/31 14:45:17;;;;;;;;;;;;;;;;;;5020706;28;20272;-24
2022/07/31 14:47:46;;;;;;;;;;;;;;;;;;5021633;28;20357;-28
2022/07/31 14:50:13;;;;;;;;;;;;;;;;;;5021494;28;19960;-25
2022/07/31 14:52:40;;;;;;;;;;;;;;;;;;5021110;28;19921;-29
2022/07/31 14:55:08;;;;;;;;;;;;;;;;;;5022871;28;20252;-26
2022/07/31 14:57:37;;;;;;;;;;;;;;;;;;5025480;28;19996;-24
2022/07/31 15:00:11;;;;;;;;;;;;;;;;;;5024677;28;19924;-26
2022/07/31 15:02:39;;;;;;;;;;;;;;;;;;5025208;28;20020;-29
2022/07/31 15:05:07;;;;;;;;;;;;;;;;;;5025007;28;19910;-28
2022/07/31 15:07:36;;;;;;;;;;;;;;;;;;5024647;28;20359;-26
2022/07/31 15:10:08;;;;;;;;;;;;;;;;;;5024642;28;19909;-29
2022/07/31 15:12:37;;;;;;;;;;;;;;;;;;5023521;28;19913;-27
2022/07/31 15:15:11;;;;;;;;;;;;;;;;;;5024910;28;19909;-26
2022/07/31 15:17:41;;;;;;;;;;;;;;;;;;5023996;28;19936;-26
2022/07/31 15:20:09;;;;;;;;;;;;;;;;;;5024130;28;20394;-28
2022/07/31 15:22:39;;;;;;;;;;;;;;;;;;5024774;28;19909;-30
2022/07/31 15:25:06;;;;;;;;;;;;;;;;;;5024288;28;19913;-29
2022/07/31 15:27:35;;;;;;;;;;;;;;;;;;5023180;28;20377;-27
2022/07/31 15:30:02;;;;;;;;;;;;;;;;;;5023293;28;19914;-24
2022/07/31 15:32:32;;;;;;;;;;;;;;;;;;5023462;28;19996;-28
2022/07/31 15:35:00;;;;;;;;;;;;;;;;;;5023668;28;19909;-25
2022/07/31 15:37:29;;;;;;;;;;;;;;;;;;5022649;28;20401;-25
2022/07/31 15:39:57;;;;;;;;;;;;;;;;;;5023422;28;19929;-28
2022/07/31 15:42:25;;;;;;;;;;;;;;;;;;5023226;28;19975;-23
2022/07/31 15:47:43;;;;;;;;;;;;;;;;;;5023617;28;19976;-25
2022/07/31 15:50:22;;;;;;;;;;;;;;;;;;5022653;28;19914;-26
2022/07/31 15:52:49;;;;;;;;;;;;;;;;;;5022850;28;20251;-31
2022/07/31 15:55:16;;;;;;;;;;;;;;;;;;5024299;28;19923;-28
2022/07/31 15:57:43;;;;;;;;;;;;;;;;;;5023724;28;19921;-24
2022/07/31 16:00:13;;;;;;;;;;;;;;;;;;5023215;28;19913;-31
2022/07/31 16:02:42;;;;;;;;;;;;;;;;;;5023596;28;19928;-25
2022/07/31 16:05:10;;;;;;;;;;;;;;;;;;5022940;28;19996;-26
2022/07/31 16:07:36;;;;;;;;;;;;;;;;;;5022529;28;19954;-29
2022/07/31 16:10:08;;;;;;;;;;;;;;;;;;5023830;28;19918;-27
2022/07/31 16:18:12;;;;;;;;;;;;;;;;;;5024033;28;20319;-25
2022/07/31 16:20:39;;;;;;;;;;;;;;;;;;5023680;28;19928;-29
2022/07/31 16:23:06;;;;;;;;;;;;;;;;;;5023746;28;19914;-24
2022/07/31 16:25:33;;;;;;;;;;;;;;;;;;5022993;28;19924;-26
2022/07/31 16:28:00;;;;;;;;;;;;;;;;;;5023648;28;19914;-26
2022/07/31 16:30:28;;;;;;;;;;;;;;;;;;5022796;28;19921;-29
2022/07/31 16:32:56;;;;;;;;;;;;;;;;;;5024374;28;19913;-27
2022/07/31 16:35:25;;;;;;;;;;;;;;;;;;5022717;28;19909;-27
2022/07/31 16:37:53;;;;;;;;;;;;;;;;;;5023144;28;19978;-24
2022/07/31 16:40:21;;;;;;;;;;;;;;;;;;5022331;28;19928;-30
2022/07/31 16:42:49;;;;;;;;;;;;;;;;;;5022136;28;19913;-27
2022/07/31 16:45:15;;;;;;;;;;;;;;;;;;5022077;28;19921;-24
2022/07/31 16:47:44;;;;;;;;;;;;;;;;;;5023169;28;19921;-24
2022/07/31 16:50:17;;;;;;;;;;;;;;;;;;5023301;28;20017;-30
2022/07/31 16:52:48;;;;;;;;;;;;;;;;;;5022037;28;20230;-28
2022/07/31 16:55:15;;;;;;;;;;;;;;;;;;5022624;28;20004;-28
2022/07/31 16:57:42;;;;;;;;;;;;;;;;;;5023116;28;19909;-27
2022/07/31 17:00:10;;;;;;;;;;;;;;;;;;5023440;28;19948;-27
2022/07/31 17:02:37;;;;;;;;;;;;;;;;;;5022171;28;20339;-25
2022/07/31 17:05:04;;;;;;;;;;;;;;;;;;5021351;28;19913;-27
2022/07/31 17:07:31;;;;;;;;;;;;;;;;;;5021516;28;20364;-25
2022/07/31 17:10:00;;;;;;;;;;;;;;;;;;5021030;28;19918;-27